createdAt,value
2017-07-14T00:00:57.852Z,83.40
2017-07-14T00:03:26.329Z,81.70
2017-07-14T00:05:55.238Z,80.60
2017-07-14T00:08:24.119Z,81.30
2017-07-14T00:10:53.152Z,81.20
2017-07-14T00:13:22.037Z,81.80
2017-07-14T00:15:50.497Z,84.60
2017-07-14T00:18:19.338Z,83.10
2017-07-14T00:20:48.235Z,83.50
2017-07-14T00:23:17.869Z,83.70
2017-07-14T00:25:46.305Z,83.80
2017-07-14T00:28:14.750Z,83.60
2017-07-14T00:30:43.670Z,83.20
2017-07-14T00:33:12.871Z,83.50
2017-07-14T00:35:41.301Z,85.30
2017-07-14T00:38:09.813Z,85.20
2017-07-14T00:40:39.021Z,85.40
2017-07-14T00:43:07.482Z,85.00
2017-07-14T00:45:36.739Z,86.00
2017-07-14T00:48:05.199Z,85.50
2017-07-14T00:50:33.633Z,85.40
2017-07-14T00:53:02.594Z,85.00
2017-07-14T00:55:31.046Z,85.20
2017-07-14T00:57:59.886Z,84.70
2017-07-14T01:00:28.372Z,84.50
2017-07-14T01:02:57.579Z,85.40
2017-07-14T01:05:26.122Z,85.30
2017-07-14T01:07:54.564Z,85.30
2017-07-14T01:10:23.079Z,84.70
2017-07-14T01:12:52.661Z,85.40
2017-07-14T01:15:21.515Z,85.50
2017-07-14T01:17:50.559Z,85.40
2017-07-14T01:20:19.014Z,84.30
2017-07-14T01:22:48.296Z,84.80
2017-07-14T01:25:17.179Z,85.30
2017-07-14T01:27:46.401Z,84.60
2017-07-14T01:30:15.243Z,83.80
2017-07-14T01:32:44.119Z,83.50
2017-07-14T01:35:12.557Z,82.90
2017-07-14T01:37:41.064Z,83.60
2017-07-14T01:40:09.224Z,83.00
2017-07-14T01:42:37.000Z,83.80
2017-07-14T01:45:05.181Z,83.00
2017-07-14T01:47:34.066Z,81.80
2017-07-14T01:50:02.532Z,81.00
2017-07-14T01:52:31.503Z,81.30
2017-07-14T01:54:59.832Z,82.30
2017-07-14T01:57:28.715Z,83.00
2017-07-14T01:59:57.643Z,84.90
2017-07-14T02:02:26.078Z,86.20
2017-07-14T02:04:54.364Z,86.10
2017-07-14T02:07:22.533Z,86.10
2017-07-14T02:09:50.982Z,88.10
2017-07-14T02:12:19.911Z,88.30
2017-07-14T02:14:48.772Z,88.50
2017-07-14T02:17:17.648Z,88.90
2017-07-14T02:19:46.390Z,91.60
2017-07-14T02:22:14.511Z,91.40
2017-07-14T02:24:43.440Z,89.30
2017-07-14T02:27:11.958Z,90.90
2017-07-14T02:29:40.868Z,90.60
2017-07-14T02:32:09.355Z,88.60
2017-07-14T02:34:37.862Z,88.50
2017-07-14T02:37:06.448Z,87.20
2017-07-14T02:39:35.322Z,89.10
2017-07-14T02:42:03.978Z,88.20
2017-07-14T02:44:32.520Z,89.00
2017-07-14T02:47:01.433Z,88.90
2017-07-14T02:49:30.866Z,90.00
2017-07-14T02:51:59.383Z,88.90
2017-07-14T02:54:28.240Z,88.50
2017-07-14T02:56:56.846Z,87.70
2017-07-14T02:59:25.049Z,88.50
2017-07-14T03:01:53.942Z,88.20
2017-07-14T03:04:22.818Z,89.40
2017-07-14T03:06:51.395Z,90.40
2017-07-14T03:09:20.673Z,91.40
2017-07-14T03:11:49.496Z,91.10
2017-07-14T03:14:17.265Z,90.30
2017-07-14T03:16:45.789Z,90.20
2017-07-14T03:19:14.664Z,89.90
2017-07-14T03:21:42.424Z,90.00
2017-07-14T03:24:11.317Z,89.80
2017-07-14T03:26:40.215Z,89.70
2017-07-14T03:29:09.504Z,89.90
2017-07-14T03:31:38.739Z,89.70
2017-07-14T03:34:07.311Z,90.10
2017-07-14T03:36:35.830Z,90.20
2017-07-14T03:39:04.937Z,90.60
2017-07-14T03:41:33.140Z,89.60
2017-07-14T03:44:02.734Z,89.20
2017-07-14T03:46:30.917Z,89.70
2017-07-14T03:48:59.110Z,88.90
2017-07-14T03:51:27.295Z,87.80
2017-07-14T03:53:55.808Z,86.90
2017-07-14T03:56:24.661Z,87.90
2017-07-14T03:58:53.940Z,87.40
2017-07-14T04:01:24.317Z,88.00
2017-07-14T04:03:53.529Z,88.40
2017-07-14T04:06:22.362Z,87.90
2017-07-14T04:08:50.845Z,87.70
2017-07-14T04:11:19.275Z,88.20
2017-07-14T04:13:48.552Z,88.20
2017-07-14T04:16:17.821Z,88.00
2017-07-14T04:18:46.263Z,88.30
2017-07-14T04:21:15.094Z,87.70
2017-07-14T04:23:43.577Z,87.40
2017-07-14T04:26:12.438Z,86.80
2017-07-14T04:28:41.273Z,86.20
2017-07-14T04:31:09.761Z,85.30
2017-07-14T04:33:38.203Z,84.30
2017-07-14T04:36:07.477Z,83.00
2017-07-14T04:38:36.084Z,82.50
2017-07-14T04:41:04.935Z,82.50
2017-07-14T04:43:33.432Z,81.50
2017-07-14T04:46:02.282Z,81.40
2017-07-14T04:48:31.127Z,81.30
2017-07-14T04:50:59.621Z,80.90
2017-07-14T04:53:28.456Z,80.90
2017-07-14T04:55:57.296Z,80.40
2017-07-14T04:58:26.345Z,80.20
2017-07-14T05:00:55.566Z,82.10
2017-07-14T05:03:25.676Z,79.10
2017-07-14T05:05:54.586Z,80.50
2017-07-14T05:08:23.425Z,80.60
2017-07-14T05:10:52.961Z,80.10
2017-07-14T05:13:21.441Z,79.20
2017-07-14T05:15:51.444Z,77.90
2017-07-14T05:18:19.903Z,78.10
2017-07-14T05:20:48.048Z,78.10
2017-07-14T05:23:16.956Z,78.10
2017-07-14T05:25:45.441Z,78.10
2017-07-14T05:28:13.882Z,77.70
2017-07-14T05:30:42.327Z,77.10
2017-07-14T05:33:12.106Z,76.30
2017-07-14T05:35:40.606Z,76.50
2017-07-14T05:38:09.035Z,77.20
2017-07-14T05:40:37.684Z,74.00
2017-07-14T05:43:06.190Z,66.80
2017-07-14T05:45:35.098Z,62.00
2017-07-14T05:48:03.548Z,57.70
2017-07-14T05:50:32.594Z,56.70
2017-07-14T05:53:02.209Z,58.60
2017-07-14T05:55:31.989Z,59.70
2017-07-14T05:58:00.435Z,59.70
2017-07-14T06:00:29.332Z,59.40
2017-07-14T06:02:58.168Z,59.80
2017-07-14T06:05:27.045Z,58.30
2017-07-14T06:07:56.544Z,59.00
2017-07-14T06:10:25.380Z,56.70
2017-07-14T06:12:54.600Z,57.80
2017-07-14T06:15:23.850Z,55.90
2017-07-14T06:17:52.705Z,57.20
2017-07-14T06:20:21.157Z,59.00
2017-07-14T06:22:50.060Z,60.30
2017-07-14T06:25:18.512Z,60.30
2017-07-14T06:27:47.717Z,60.80
2017-07-14T06:30:16.227Z,59.50
2017-07-14T06:32:45.439Z,58.30
2017-07-14T06:35:15.367Z,56.40
2017-07-14T06:37:43.842Z,53.70
2017-07-14T06:40:12.300Z,53.40
2017-07-14T06:42:41.567Z,54.10
2017-07-14T06:45:10.407Z,52.80
2017-07-14T06:47:39.263Z,52.50
2017-07-14T06:50:09.260Z,49.90
2017-07-14T06:52:38.465Z,49.20
2017-07-14T06:55:07.664Z,50.20
2017-07-14T06:57:36.143Z,49.70
2017-07-14T07:00:05.723Z,52.40
2017-07-14T07:02:34.190Z,52.50
2017-07-14T07:05:02.666Z,52.70
2017-07-14T07:07:31.890Z,52.10
2017-07-14T07:10:01.160Z,50.90
2017-07-14T07:12:29.599Z,47.30
2017-07-14T07:14:58.438Z,42.70
2017-07-14T07:17:28.078Z,41.90
2017-07-14T07:19:56.734Z,40.60
2017-07-14T07:22:25.752Z,40.10
2017-07-14T07:24:54.628Z,40.30
2017-07-14T07:27:23.060Z,40.50
2017-07-14T07:29:51.945Z,39.40
2017-07-14T07:32:20.428Z,36.20
2017-07-14T07:34:50.574Z,36.50
2017-07-14T07:37:19.467Z,35.00
2017-07-14T07:39:48.693Z,35.90
2017-07-14T07:42:18.116Z,36.60
2017-07-14T07:44:46.679Z,38.40
2017-07-14T07:47:21.062Z,40.60
2017-07-14T07:49:49.550Z,42.50
2017-07-14T07:52:18.383Z,42.20
2017-07-14T07:54:46.829Z,39.70
2017-07-14T07:57:15.307Z,39.50
2017-07-14T07:59:43.786Z,39.50
2017-07-14T08:02:12.228Z,38.30
2017-07-14T08:04:40.755Z,37.60
2017-07-14T08:07:09.205Z,41.20
2017-07-14T08:09:38.424Z,43.00
2017-07-14T08:12:07.345Z,43.90
2017-07-14T08:14:35.786Z,45.80
2017-07-14T08:17:04.639Z,47.60
2017-07-14T08:19:33.522Z,47.10
2017-07-14T08:22:02.161Z,47.50
2017-07-14T08:24:30.593Z,46.70
2017-07-14T08:26:59.871Z,41.70
2017-07-14T08:29:29.459Z,36.00
2017-07-14T08:31:57.908Z,37.70
2017-07-14T08:34:27.156Z,39.60
2017-07-14T08:36:55.596Z,40.50
2017-07-14T08:39:24.438Z,43.60
2017-07-14T08:41:53.309Z,46.70
2017-07-14T08:44:22.188Z,50.70
2017-07-14T08:46:51.034Z,51.40
2017-07-14T08:49:19.478Z,52.30
2017-07-14T08:51:48.475Z,52.80
2017-07-14T08:54:16.922Z,53.70
2017-07-14T08:56:45.757Z,52.30
2017-07-14T08:59:14.648Z,53.60
2017-07-14T09:01:43.101Z,54.80
2017-07-14T09:04:12.314Z,54.80
2017-07-14T09:06:41.307Z,54.90
2017-07-14T09:09:09.745Z,54.70
2017-07-14T09:11:38.975Z,55.20
2017-07-14T09:14:07.477Z,57.00
2017-07-14T09:16:35.914Z,56.80
2017-07-14T09:19:05.183Z,57.80
2017-07-14T09:21:33.640Z,58.70
2017-07-14T09:24:02.093Z,58.50
2017-07-14T09:26:30.559Z,58.60
2017-07-14T09:28:59.003Z,57.80
2017-07-14T09:31:27.449Z,57.00
2017-07-14T09:33:56.360Z,57.70
2017-07-14T09:36:24.805Z,58.50
2017-07-14T09:38:53.246Z,58.40
2017-07-14T09:41:21.743Z,58.70
2017-07-14T09:43:50.601Z,59.30
2017-07-14T09:46:19.242Z,59.00
2017-07-14T09:48:48.129Z,59.00
2017-07-14T09:51:16.978Z,57.30
2017-07-14T09:53:45.882Z,56.50
2017-07-14T09:56:14.717Z,57.30
2017-07-14T09:58:43.927Z,56.60
2017-07-14T10:01:12.484Z,57.30
2017-07-14T10:03:40.990Z,56.80
2017-07-14T10:06:09.429Z,56.60
2017-07-14T10:08:38.268Z,56.30
2017-07-14T10:11:06.771Z,54.80
2017-07-14T10:13:36.013Z,56.50
2017-07-14T10:16:04.919Z,55.10
2017-07-14T10:18:33.756Z,54.40
2017-07-14T10:21:02.607Z,54.40
2017-07-14T10:23:31.858Z,53.50
2017-07-14T10:26:00.685Z,53.20
2017-07-14T10:28:29.147Z,52.50
2017-07-14T10:30:57.623Z,52.00
2017-07-14T10:33:26.467Z,50.60
2017-07-14T10:35:54.900Z,48.70
2017-07-14T10:38:24.007Z,46.10
2017-07-14T10:40:53.236Z,44.30
2017-07-14T10:43:22.078Z,44.70
2017-07-14T10:45:50.921Z,41.50
2017-07-14T10:48:19.766Z,42.90
2017-07-14T10:50:48.288Z,40.10
2017-07-14T10:53:17.886Z,39.80
2017-07-14T10:55:46.338Z,40.30
2017-07-14T10:58:15.225Z,38.70
2017-07-14T11:00:43.723Z,39.00
2017-07-14T11:03:12.155Z,38.70
2017-07-14T11:05:41.069Z,39.10
2017-07-14T11:08:09.899Z,39.30
2017-07-14T11:10:38.371Z,39.40
2017-07-14T11:13:06.871Z,37.10
2017-07-14T11:15:35.399Z,39.10
2017-07-14T11:18:03.848Z,38.50
2017-07-14T11:20:33.536Z,38.80
2017-07-14T11:23:01.983Z,39.50
2017-07-14T11:25:31.566Z,37.50
2017-07-14T11:28:00.819Z,32.60
2017-07-14T11:30:29.686Z,30.00
2017-07-14T11:32:58.183Z,30.10
2017-07-14T11:35:26.661Z,29.20
2017-07-14T11:37:55.558Z,29.70
2017-07-14T11:40:24.407Z,27.00
2017-07-14T11:42:53.245Z,27.00
2017-07-14T11:45:21.726Z,25.20
2017-07-14T11:47:50.180Z,25.70
2017-07-14T11:50:19.243Z,25.20
2017-07-14T11:52:47.679Z,25.20
2017-07-14T11:55:16.649Z,25.10
2017-07-14T11:57:45.098Z,26.30
2017-07-14T12:00:14.330Z,28.70
2017-07-14T12:02:43.241Z,26.50
2017-07-14T12:05:11.699Z,26.50
2017-07-14T12:07:40.146Z,28.80
2017-07-14T12:10:08.644Z,28.60
2017-07-14T12:12:38.077Z,27.60
2017-07-14T12:15:08.739Z,26.10
2017-07-14T12:17:37.590Z,25.00
2017-07-14T12:20:06.445Z,27.00
2017-07-14T12:22:35.688Z,27.00
2017-07-14T12:25:04.591Z,27.90
2017-07-14T12:27:33.445Z,25.80
2017-07-14T12:30:02.280Z,25.20
2017-07-14T12:32:30.763Z,25.80
2017-07-14T12:34:59.230Z,27.10
2017-07-14T12:37:27.869Z,27.70
2017-07-14T12:39:56.766Z,28.50
2017-07-14T12:42:25.189Z,29.00
2017-07-14T12:44:54.429Z,26.60
2017-07-14T12:47:23.712Z,26.10
2017-07-14T12:49:52.164Z,26.30
2017-07-14T12:52:21.132Z,27.00
2017-07-14T12:54:50.014Z,27.80
2017-07-14T12:57:18.460Z,24.60
2017-07-14T12:59:47.325Z,24.80
2017-07-14T13:02:16.217Z,22.50
2017-07-14T13:04:45.077Z,23.60
2017-07-14T13:07:14.344Z,23.30
2017-07-14T13:09:43.372Z,25.60
2017-07-14T13:12:11.823Z,28.80
2017-07-14T13:14:40.700Z,30.70
2017-07-14T13:17:09.156Z,32.40
2017-07-14T13:19:38.086Z,34.30
2017-07-14T13:22:06.932Z,35.60
2017-07-14T13:24:35.765Z,36.20
2017-07-14T13:27:04.671Z,36.50
2017-07-14T13:29:33.738Z,38.40
2017-07-14T13:32:02.958Z,39.00
2017-07-14T13:34:32.151Z,41.30
2017-07-14T13:37:00.638Z,43.90
2017-07-14T13:39:29.548Z,46.40
2017-07-14T13:41:58.028Z,45.50
2017-07-14T13:44:27.239Z,51.20
2017-07-14T13:46:56.139Z,49.10
2017-07-14T13:49:25.384Z,51.10
2017-07-14T13:51:53.887Z,48.70
2017-07-14T13:54:22.345Z,49.20
2017-07-14T13:56:51.432Z,50.60
2017-07-14T13:59:19.921Z,51.90
2017-07-14T14:01:48.470Z,55.70
2017-07-14T14:04:16.910Z,56.00
2017-07-14T14:06:46.142Z,57.70
2017-07-14T14:09:14.765Z,57.40
2017-07-14T14:11:43.619Z,56.60
2017-07-14T14:14:12.941Z,57.00
2017-07-14T14:16:41.799Z,56.60
2017-07-14T14:19:10.995Z,57.30
2017-07-14T14:21:39.493Z,59.50
2017-07-14T14:24:07.942Z,64.30
2017-07-14T14:26:37.243Z,68.30
2017-07-14T14:29:13.010Z,79.90
2017-07-14T14:49:52.656Z,56.90
2017-07-14T14:52:21.880Z,57.70
2017-07-14T14:54:50.316Z,51.70
2017-07-14T14:57:19.443Z,50.10
2017-07-14T14:59:47.891Z,49.90
2017-07-14T15:02:17.300Z,46.90
2017-07-14T15:04:48.274Z,47.30
2017-07-14T15:07:17.530Z,47.40
2017-07-14T15:09:45.988Z,42.70
2017-07-14T15:12:14.817Z,41.20
2017-07-14T15:14:43.661Z,37.20
2017-07-14T15:17:12.521Z,37.30
2017-07-14T15:19:41.461Z,42.00
2017-07-14T15:22:09.902Z,45.50
2017-07-14T15:24:38.359Z,49.40
2017-07-14T15:27:07.498Z,56.10
2017-07-14T15:29:36.367Z,62.80
2017-07-14T15:32:04.815Z,65.30
2017-07-14T15:34:33.705Z,65.80
2017-07-14T15:37:02.178Z,70.50
2017-07-14T15:39:31.400Z,79.20
2017-07-14T15:42:00.357Z,82.30
2017-07-14T15:44:30.566Z,79.00
2017-07-14T15:47:00.026Z,80.50
2017-07-14T15:49:28.888Z,85.70
2017-07-14T15:51:57.779Z,86.00
2017-07-14T15:54:27.000Z,83.00
2017-07-14T15:56:55.477Z,74.90
2017-07-14T15:59:24.364Z,67.50
2017-07-14T16:01:53.235Z,67.00
2017-07-14T16:04:22.317Z,67.00
2017-07-14T16:06:51.189Z,73.20
2017-07-14T16:09:20.818Z,72.40
2017-07-14T16:11:50.413Z,67.10
2017-07-14T16:14:18.866Z,66.70
2017-07-14T16:16:47.326Z,67.30
2017-07-14T16:19:16.173Z,70.20
2017-07-14T16:21:45.461Z,69.60
2017-07-14T16:24:14.314Z,71.30
2017-07-14T16:26:43.175Z,71.30
2017-07-14T16:29:12.105Z,71.30
2017-07-14T16:31:40.551Z,68.10
2017-07-14T16:34:09.765Z,71.20
2017-07-14T16:36:39.054Z,68.00
2017-07-14T16:39:08.270Z,64.40
2017-07-14T16:44:06.824Z,61.30
2017-07-14T16:46:35.262Z,59.90
2017-07-14T16:49:04.131Z,64.40
2017-07-14T16:51:32.656Z,67.40
2017-07-14T16:54:02.644Z,62.80
2017-07-14T16:56:31.523Z,66.00
2017-07-14T16:58:59.985Z,62.30
2017-07-14T17:01:28.424Z,59.20
2017-07-14T17:03:57.323Z,57.30
2017-07-14T17:06:26.227Z,58.30
2017-07-14T17:08:54.663Z,62.30
2017-07-14T17:11:23.957Z,62.90
2017-07-14T17:13:52.829Z,59.90
2017-07-14T17:16:22.890Z,61.10
2017-07-14T17:18:51.744Z,62.80
2017-07-14T17:21:20.980Z,58.20
2017-07-14T17:23:50.446Z,57.80
2017-07-14T17:26:19.320Z,54.20
2017-07-14T17:28:48.397Z,53.70
2017-07-14T17:31:17.317Z,53.80
2017-07-14T17:33:46.167Z,53.80
2017-07-14T17:36:16.152Z,55.00
2017-07-14T17:38:45.004Z,54.80
2017-07-14T17:41:14.523Z,57.00
2017-07-14T17:43:44.562Z,54.90
2017-07-14T17:46:13.641Z,57.00
2017-07-14T17:48:42.088Z,59.40
2017-07-14T17:51:10.971Z,60.00
2017-07-14T17:53:39.910Z,62.80
2017-07-14T17:56:08.571Z,64.30
2017-07-14T17:58:37.787Z,67.40
2017-07-14T18:01:06.677Z,66.70
2017-07-14T18:03:35.732Z,66.20
2017-07-14T18:06:04.777Z,65.40
2017-07-14T18:08:33.314Z,66.00
2017-07-14T18:11:01.759Z,70.60
2017-07-14T18:13:30.749Z,75.50
2017-07-14T18:15:59.647Z,78.10
2017-07-14T18:18:28.501Z,82.70
2017-07-14T18:20:56.951Z,82.80
2017-07-14T18:23:25.450Z,83.90
2017-07-14T18:25:54.302Z,84.60
2017-07-14T18:28:22.771Z,87.90
2017-07-14T18:30:52.395Z,88.20
2017-07-14T18:33:21.348Z,89.20
2017-07-14T18:35:50.409Z,88.20
2017-07-14T18:38:18.926Z,87.80
2017-07-14T18:40:49.547Z,87.30
2017-07-14T18:43:18.387Z,86.70
2017-07-14T18:45:47.217Z,86.90
2017-07-14T18:48:15.699Z,87.80
2017-07-14T18:50:44.781Z,88.20
2017-07-14T18:53:13.630Z,88.60
2017-07-14T18:55:42.913Z,89.00
2017-07-14T18:58:11.762Z,88.40
2017-07-14T19:00:39.931Z,90.00
2017-07-14T19:03:09.544Z,88.00
2017-07-14T19:05:38.427Z,89.20
2017-07-14T19:08:06.874Z,90.40
2017-07-14T19:10:36.135Z,92.80
2017-07-14T19:13:04.642Z,93.40
2017-07-14T19:15:33.095Z,91.90
2017-07-14T19:18:01.551Z,93.30
2017-07-14T19:20:30.236Z,93.30
2017-07-14T19:22:58.727Z,94.00
2017-07-14T19:25:28.159Z,92.00
2017-07-14T19:27:57.388Z,90.00
2017-07-14T19:30:25.854Z,89.60
2017-07-14T19:32:55.821Z,91.20
2017-07-14T19:35:24.683Z,92.70
2017-07-14T19:37:53.586Z,93.40
2017-07-14T19:40:23.165Z,94.30
2017-07-14T19:42:52.043Z,93.90
2017-07-14T19:45:21.145Z,94.10
2017-07-14T19:47:50.471Z,93.80
2017-07-14T19:50:18.972Z,93.20
2017-07-14T19:52:47.423Z,93.20
2017-07-14T19:55:15.935Z,93.50
2017-07-14T19:57:44.412Z,94.00
2017-07-14T20:00:13.328Z,94.30
2017-07-14T20:02:41.954Z,95.20
2017-07-14T20:05:10.837Z,94.60
2017-07-14T20:07:39.377Z,95.10
2017-07-14T20:10:08.612Z,96.00
2017-07-14T20:12:37.458Z,96.10
2017-07-14T20:15:06.681Z,95.60
2017-07-14T20:17:35.791Z,95.60
2017-07-14T20:20:05.107Z,94.60
2017-07-14T20:22:33.969Z,95.90
2017-07-14T20:25:02.851Z,95.80
2017-07-14T20:27:31.694Z,94.60
2017-07-14T20:30:00.130Z,95.30
2017-07-14T20:32:29.024Z,96.50
2017-07-14T20:34:57.472Z,96.50
2017-07-14T20:37:26.437Z,96.40
2017-07-14T20:39:55.533Z,97.90
2017-07-14T20:42:24.410Z,98.10
2017-07-14T20:44:53.240Z,97.60
2017-07-14T20:47:22.866Z,99.10
2017-07-14T20:49:52.096Z,98.80
2017-07-14T20:52:20.584Z,98.10
2017-07-14T20:54:49.037Z,98.90
2017-07-14T20:57:17.884Z,98.40
2017-07-14T20:59:47.149Z,98.10
2017-07-14T21:02:16.278Z,97.70
2017-07-14T21:04:45.237Z,97.10
2017-07-14T21:07:13.680Z,96.30
2017-07-14T21:09:42.521Z,95.90
2017-07-14T21:12:11.209Z,96.60
2017-07-14T21:14:40.045Z,97.10
2017-07-14T21:17:09.399Z,98.30
2017-07-14T21:19:38.237Z,96.10
2017-07-14T21:22:07.067Z,95.80
2017-07-14T21:24:35.941Z,95.80
2017-07-14T21:27:04.835Z,96.60
2017-07-14T21:29:33.684Z,96.60
2017-07-14T21:32:02.525Z,96.20
2017-07-14T21:34:31.086Z,97.10
2017-07-14T21:36:59.540Z,96.70
2017-07-14T21:39:28.039Z,97.50
2017-07-14T21:41:56.927Z,97.50
2017-07-14T21:44:25.379Z,98.10
2017-07-14T21:46:53.841Z,96.80
2017-07-14T21:49:22.607Z,97.30
2017-07-14T21:51:51.069Z,96.20
2017-07-14T21:54:19.505Z,97.20
2017-07-14T21:56:47.981Z,96.90
2017-07-14T21:59:16.429Z,96.20
2017-07-14T22:01:44.910Z,95.60
2017-07-14T22:04:13.747Z,95.10
2017-07-14T22:06:43.170Z,96.00
2017-07-14T22:09:12.001Z,94.90
2017-07-14T22:11:40.469Z,93.80
2017-07-14T22:14:08.965Z,90.70
2017-07-14T22:16:38.007Z,91.00
2017-07-14T22:19:07.194Z,89.80
2017-07-14T22:21:35.704Z,88.30
2017-07-14T22:24:04.534Z,88.20
2017-07-14T22:26:33.479Z,87.60
2017-07-14T22:29:02.309Z,86.20
2017-07-14T22:31:30.928Z,84.50
2017-07-14T22:33:59.422Z,83.90
2017-07-14T22:36:27.875Z,83.30
2017-07-14T22:38:56.314Z,83.30
2017-07-14T22:41:25.224Z,82.50
2017-07-14T22:43:55.058Z,81.10
2017-07-14T22:46:23.897Z,81.50
2017-07-14T22:48:52.736Z,81.20
2017-07-14T22:51:21.566Z,81.70
2017-07-14T22:53:50.102Z,81.20
2017-07-14T22:56:18.938Z,80.70
2017-07-14T22:58:47.397Z,82.50
2017-07-14T23:01:15.892Z,82.40
2017-07-14T23:03:44.747Z,82.90
2017-07-14T23:06:13.363Z,81.60
2017-07-14T23:08:42.374Z,82.80
2017-07-14T23:11:11.206Z,83.00
2017-07-14T23:13:40.187Z,83.70
2017-07-14T23:16:08.675Z,83.40
2017-07-14T23:18:37.348Z,84.30
2017-07-14T23:21:05.837Z,85.10
2017-07-14T23:23:35.556Z,83.90
2017-07-14T23:26:05.058Z,84.60
2017-07-14T23:28:33.506Z,84.60
2017-07-14T23:31:01.949Z,84.70
2017-07-14T23:33:30.857Z,85.90
2017-07-14T23:35:59.701Z,86.20
2017-07-14T23:38:28.140Z,86.60
2017-07-14T23:40:56.647Z,87.80
2017-07-14T23:43:25.687Z,87.90
2017-07-14T23:45:54.543Z,86.60
2017-07-14T23:48:23.038Z,86.40
2017-07-14T23:50:51.908Z,86.40
2017-07-14T23:53:20.353Z,86.80
2017-07-14T23:55:49.268Z,87.00
2017-07-14T23:58:18.133Z,88.10
